createdAt,value
2023-05-22T00:01:19.438Z,11.75
2023-05-22T00:03:48.918Z,11.65
2023-05-22T00:06:16.083Z,11.57
2023-05-22T00:08:43.193Z,10.75
2023-05-22T00:11:10.520Z,11.35
2023-05-22T00:13:37.808Z,10.63
2023-05-22T00:16:11.848Z,11.55
2023-05-22T00:18:43.451Z,11.68
2023-05-22T00:21:10.867Z,10.68
2023-05-22T00:23:37.952Z,11.23
2023-05-22T00:26:05.080Z,11.43
2023-05-22T00:28:32.278Z,11.32
2023-05-22T00:30:59.450Z,10.88
2023-05-22T00:33:27.023Z,10.73
2023-05-22T00:35:54.226Z,9.50
2023-05-22T00:38:33.033Z,10.95
2023-05-22T00:41:04.047Z,10.60
2023-05-22T00:43:31.673Z,10.30
2023-05-22T00:45:58.971Z,10.70
2023-05-22T00:48:27.417Z,9.98
2023-05-22T00:50:58.088Z,10.98
2023-05-22T00:53:30.122Z,9.68
2023-05-22T00:55:58.870Z,9.77
2023-05-22T00:58:27.200Z,10.70
2023-05-22T01:00:55.612Z,10.63
2023-05-22T01:03:26.589Z,9.60
2023-05-22T01:05:55.182Z,9.85
2023-05-22T01:08:23.716Z,10.10
2023-05-22T01:10:57.474Z,10.43
2023-05-22T01:13:34.589Z,10.52
2023-05-22T01:16:22.843Z,9.70
2023-05-22T01:19:03.099Z,9.73
2023-05-22T01:21:46.346Z,10.40
2023-05-22T01:24:46.034Z,10.82
2023-05-22T01:27:53.934Z,10.40
2023-05-22T01:30:46.273Z,10.35
2023-05-22T01:33:17.318Z,9.65
2023-05-22T01:35:51.683Z,9.85
2023-05-22T01:38:19.380Z,10.85
2023-05-22T01:40:47.863Z,10.32
2023-05-22T01:43:15.766Z,10.57
2023-05-22T01:45:42.830Z,10.13
2023-05-22T01:48:10.376Z,10.35
2023-05-22T01:50:40.859Z,10.32
2023-05-22T01:53:15.851Z,10.32
2023-05-22T01:55:48.552Z,10.57
2023-05-22T01:58:31.409Z,10.32
2023-05-22T02:01:00.945Z,10.15
2023-05-22T02:03:32.116Z,10.32
2023-05-22T02:06:02.281Z,10.60
2023-05-22T02:08:30.863Z,10.65
2023-05-22T02:10:59.701Z,10.77
2023-05-22T02:13:26.946Z,10.15
2023-05-22T02:15:56.413Z,10.40
2023-05-22T02:18:31.175Z,11.32
2023-05-22T02:20:59.455Z,11.00
2023-05-22T02:23:30.108Z,10.95
2023-05-22T02:25:57.453Z,10.32
2023-05-22T02:28:24.868Z,11.35
2023-05-22T02:30:52.172Z,11.10
2023-05-22T02:33:19.302Z,10.85
2023-05-22T02:35:49.799Z,11.02
2023-05-22T02:38:17.168Z,10.35
2023-05-22T02:40:45.137Z,10.75
2023-05-22T02:43:12.210Z,11.07
2023-05-22T02:45:42.772Z,11.10
2023-05-22T02:48:10.194Z,11.35
2023-05-22T02:50:37.553Z,10.77
2023-05-22T02:53:04.910Z,10.43
2023-05-22T02:55:32.103Z,11.35
2023-05-22T02:57:59.263Z,11.43
2023-05-22T03:00:26.379Z,10.90
2023-05-22T03:02:55.197Z,11.07
2023-05-22T03:05:22.396Z,11.35
2023-05-22T03:07:52.940Z,10.90
2023-05-22T03:10:22.623Z,11.15
2023-05-22T03:12:51.919Z,11.23
2023-05-22T03:15:19.450Z,11.13
2023-05-22T03:17:47.797Z,11.65
2023-05-22T03:20:16.494Z,12.00
2023-05-22T03:22:44.781Z,11.15
2023-05-22T03:25:12.630Z,10.85
2023-05-22T03:27:43.595Z,13.23
2023-05-22T03:30:11.199Z,12.88
2023-05-22T03:32:42.087Z,12.38
2023-05-22T03:35:09.755Z,12.15
2023-05-22T03:37:37.002Z,11.95
2023-05-22T03:40:05.003Z,12.18
2023-05-22T03:42:32.240Z,13.77
2023-05-22T03:44:59.339Z,11.52
2023-05-22T03:47:28.776Z,12.43
2023-05-22T03:49:57.914Z,14.07
2023-05-22T03:52:25.656Z,15.05
2023-05-22T03:54:54.002Z,16.17
2023-05-22T03:57:21.158Z,17.83
2023-05-22T03:59:48.252Z,16.30
2023-05-22T04:02:16.922Z,17.50
2023-05-22T04:04:48.738Z,17.33
2023-05-22T04:07:18.635Z,17.60
2023-05-22T04:09:45.911Z,17.27
2023-05-22T04:12:12.923Z,18.75
2023-05-22T04:14:39.904Z,16.95
2023-05-22T04:17:16.225Z,17.25
2023-05-22T04:19:49.016Z,17.23
2023-05-22T04:22:18.747Z,21.02
2023-05-22T04:24:49.325Z,17.00
2023-05-22T04:27:16.475Z,16.48
2023-05-22T04:29:45.064Z,17.58
2023-05-22T04:32:12.065Z,17.45
2023-05-22T04:34:39.095Z,17.58
2023-05-22T04:37:06.440Z,18.83
2023-05-22T04:39:34.411Z,17.80
2023-05-22T04:42:06.339Z,18.17
2023-05-22T04:44:35.386Z,16.33
2023-05-22T04:47:04.796Z,17.95
2023-05-22T04:49:34.965Z,17.63
2023-05-22T04:52:07.295Z,18.30
2023-05-22T04:54:34.982Z,17.90
2023-05-22T04:57:04.573Z,18.38
2023-05-22T04:59:33.664Z,19.73
2023-05-22T05:02:00.772Z,20.58
2023-05-22T05:04:27.756Z,21.65
2023-05-22T05:06:55.301Z,21.10
2023-05-22T05:09:23.549Z,21.25
2023-05-22T05:11:52.436Z,22.88
2023-05-22T05:14:19.970Z,21.55
2023-05-22T05:16:47.690Z,22.40
2023-05-22T05:19:15.626Z,23.58
2023-05-22T05:21:42.862Z,22.98
2023-05-22T05:24:10.043Z,25.73
2023-05-22T05:26:37.410Z,26.50
2023-05-22T05:29:04.830Z,25.65
2023-05-22T05:31:39.354Z,26.17
2023-05-22T05:34:26.652Z,28.52
2023-05-22T05:37:01.324Z,29.27
2023-05-22T05:39:29.152Z,30.65
2023-05-22T05:41:57.298Z,29.00
2023-05-22T05:44:24.320Z,28.60
2023-05-22T05:46:52.718Z,29.75
2023-05-22T05:49:22.629Z,29.80
2023-05-22T05:51:50.334Z,29.10
2023-05-22T05:54:18.367Z,29.08
2023-05-22T05:56:46.564Z,30.85
2023-05-22T05:59:13.895Z,31.42
2023-05-22T06:02:10.712Z,32.25
2023-05-22T06:04:38.316Z,32.92
2023-05-22T06:07:06.246Z,30.55
2023-05-22T06:09:38.684Z,31.75
2023-05-22T06:12:18.284Z,30.83
2023-05-22T06:14:45.747Z,30.88
2023-05-22T06:17:14.632Z,32.08
2023-05-22T06:20:01.653Z,33.22
2023-05-22T06:22:31.683Z,32.13
2023-05-22T06:24:59.428Z,32.20
2023-05-22T06:27:28.309Z,32.20
2023-05-22T06:29:56.479Z,32.88
2023-05-22T06:32:25.570Z,31.05
2023-05-22T06:34:54.138Z,28.27
2023-05-22T06:37:22.134Z,30.10
2023-05-22T06:39:49.410Z,25.67
2023-05-22T06:42:23.056Z,26.90
2023-05-22T06:45:09.250Z,26.58
2023-05-22T06:47:46.632Z,23.55
2023-05-22T06:50:13.796Z,22.48
2023-05-22T06:52:41.752Z,22.98
2023-05-22T06:55:11.275Z,22.20
2023-05-22T06:57:51.644Z,21.20
2023-05-22T07:00:21.882Z,22.13
2023-05-22T07:03:15.180Z,21.80
2023-05-22T07:05:59.625Z,22.15
2023-05-22T07:08:30.328Z,21.63
2023-05-22T07:10:57.752Z,25.73
2023-05-22T07:13:25.033Z,21.30
2023-05-22T07:15:52.089Z,21.88
2023-05-22T07:18:19.304Z,22.60
2023-05-22T07:20:46.406Z,22.65
2023-05-22T07:23:17.904Z,23.95
2023-05-22T07:25:45.164Z,23.73
2023-05-22T07:28:14.109Z,27.33
2023-05-22T07:31:04.219Z,30.63
2023-05-22T07:33:31.773Z,27.98
2023-05-22T07:35:59.577Z,27.38
2023-05-22T07:38:26.890Z,28.40
2023-05-22T07:40:59.456Z,28.55
2023-05-22T07:43:27.966Z,27.25
2023-05-22T07:45:56.028Z,25.90
2023-05-22T07:48:26.001Z,27.13
2023-05-22T07:50:54.799Z,26.38
2023-05-22T07:53:21.893Z,26.73
2023-05-22T07:55:51.373Z,26.70
2023-05-22T07:58:19.716Z,23.60
2023-05-22T08:00:47.791Z,24.75
2023-05-22T08:03:15.169Z,23.63
2023-05-22T08:05:42.282Z,24.25
2023-05-22T08:08:10.578Z,22.20
2023-05-22T08:13:08.259Z,23.00
2023-05-22T08:15:35.492Z,23.75
2023-05-22T08:18:02.721Z,23.60
2023-05-22T08:20:29.785Z,23.40
2023-05-22T08:22:57.146Z,25.05
2023-05-22T08:25:24.193Z,26.65
2023-05-22T08:27:52.103Z,24.17
2023-05-22T08:30:19.198Z,24.88
2023-05-22T08:32:46.220Z,25.55
2023-05-22T08:35:14.431Z,24.42
2023-05-22T08:37:41.669Z,25.13
2023-05-22T08:40:13.026Z,24.20
2023-05-22T08:42:40.433Z,24.52
2023-05-22T08:45:08.042Z,23.73
2023-05-22T08:47:38.685Z,21.88
2023-05-22T08:50:06.562Z,21.27
2023-05-22T08:52:37.762Z,20.40
2023-05-22T08:55:06.014Z,18.52
2023-05-22T08:57:33.203Z,17.98
2023-05-22T09:00:00.444Z,18.08
2023-05-22T09:02:28.604Z,17.02
2023-05-22T09:04:57.393Z,18.90
2023-05-22T09:07:25.369Z,17.55
2023-05-22T09:09:52.368Z,17.73
2023-05-22T09:12:19.512Z,18.13
2023-05-22T09:14:46.501Z,18.02
2023-05-22T09:17:17.689Z,18.80
2023-05-22T09:19:48.658Z,16.60
2023-05-22T09:22:17.621Z,18.58
2023-05-22T09:24:48.842Z,15.60
2023-05-22T09:27:16.151Z,14.10
2023-05-22T09:30:01.453Z,14.43
2023-05-22T09:32:32.727Z,15.05
2023-05-22T09:35:06.857Z,13.80
2023-05-22T09:37:36.126Z,13.25
2023-05-22T09:40:07.515Z,15.65
2023-05-22T09:42:35.606Z,15.30
2023-05-22T09:45:09.245Z,14.25
2023-05-22T09:47:36.491Z,14.25
2023-05-22T09:50:07.245Z,13.55
2023-05-22T09:52:36.721Z,14.05
2023-05-22T09:55:07.087Z,13.73
2023-05-22T09:57:44.628Z,12.60
2023-05-22T10:00:14.398Z,13.38
2023-05-22T10:02:46.357Z,13.75
2023-05-22T10:05:24.355Z,14.43
2023-05-22T10:07:56.440Z,12.80
2023-05-22T10:10:25.328Z,13.07
2023-05-22T10:13:02.318Z,12.68
2023-05-22T10:15:31.062Z,11.98
2023-05-22T10:18:01.772Z,12.85
2023-05-22T10:20:31.016Z,11.63
2023-05-22T10:22:58.313Z,12.15
2023-05-22T10:25:26.175Z,11.57
2023-05-22T10:27:55.073Z,11.25
2023-05-22T10:30:40.445Z,11.18
2023-05-22T10:33:48.879Z,11.65
2023-05-22T10:37:13.172Z,11.35
2023-05-22T10:40:04.420Z,10.98
2023-05-22T10:42:32.801Z,11.57
2023-05-22T10:45:05.243Z,11.38
2023-05-22T10:47:36.322Z,10.40
2023-05-22T10:50:07.331Z,9.80
2023-05-22T10:52:35.725Z,10.52
2023-05-22T10:55:08.362Z,10.18
2023-05-22T10:57:38.817Z,10.25
2023-05-22T11:00:10.213Z,9.82
2023-05-22T11:02:45.738Z,7.40
2023-05-22T11:05:18.763Z,8.88
2023-05-22T11:07:46.096Z,11.50
2023-05-22T11:10:13.175Z,9.18
2023-05-22T11:12:41.629Z,7.43
2023-05-22T11:15:10.743Z,7.63
2023-05-22T11:17:40.141Z,8.00
2023-05-22T11:20:13.859Z,7.75
2023-05-22T11:22:50.472Z,7.85
2023-05-22T11:25:19.753Z,7.38
2023-05-22T11:27:48.255Z,7.38
2023-05-22T11:30:16.578Z,7.85
2023-05-22T11:32:45.763Z,8.10
2023-05-22T11:35:18.204Z,7.75
2023-05-22T11:37:46.300Z,7.72
2023-05-22T11:40:17.517Z,8.13
2023-05-22T11:42:45.025Z,8.57
2023-05-22T11:45:12.228Z,8.45
2023-05-22T11:47:39.838Z,8.63
2023-05-22T11:50:10.259Z,9.10
2023-05-22T11:52:38.983Z,8.57
2023-05-22T11:55:06.892Z,9.13
2023-05-22T11:57:38.064Z,8.90
2023-05-22T12:00:08.562Z,9.27
2023-05-22T12:02:47.892Z,9.35
2023-05-22T12:05:16.855Z,8.73
2023-05-22T12:07:44.788Z,9.38
2023-05-22T12:10:14.637Z,9.80
2023-05-22T12:12:44.453Z,9.23
2023-05-22T12:15:14.072Z,9.55
2023-05-22T12:17:41.199Z,9.90
2023-05-22T12:20:13.325Z,9.65
2023-05-22T12:22:44.403Z,9.02
2023-05-22T12:25:16.793Z,9.25
2023-05-22T12:27:45.707Z,9.02
2023-05-22T12:30:15.008Z,8.68
2023-05-22T12:32:47.994Z,9.15
2023-05-22T12:35:17.323Z,9.52
2023-05-22T12:37:52.221Z,9.55
2023-05-22T12:40:19.721Z,10.18
2023-05-22T12:42:48.639Z,9.70
2023-05-22T12:45:17.997Z,9.32
2023-05-22T12:47:46.248Z,9.60
2023-05-22T12:50:13.944Z,9.73
2023-05-22T12:52:41.097Z,9.85
2023-05-22T12:55:10.435Z,8.80
2023-05-22T12:57:37.843Z,9.50
2023-05-22T13:00:06.091Z,9.63
2023-05-22T13:02:35.234Z,9.52
2023-05-22T13:05:02.421Z,8.88
2023-05-22T13:07:33.512Z,8.93
2023-05-22T13:10:00.773Z,9.00
2023-05-22T13:12:27.821Z,9.73
2023-05-22T13:14:55.004Z,10.63
2023-05-22T13:17:22.100Z,9.48
2023-05-22T13:19:49.381Z,10.05
2023-05-22T13:22:16.570Z,9.35
2023-05-22T13:24:43.682Z,9.30
2023-05-22T13:27:10.967Z,9.77
2023-05-22T13:29:38.118Z,9.40
2023-05-22T13:32:05.699Z,9.98
2023-05-22T13:34:32.983Z,8.95
2023-05-22T13:37:00.610Z,8.95
2023-05-22T13:39:27.649Z,8.70
2023-05-22T13:41:54.685Z,9.32
2023-05-22T13:44:22.081Z,8.75
2023-05-22T13:46:49.343Z,9.40
2023-05-22T13:49:16.396Z,8.55
2023-05-22T13:51:43.662Z,8.60
2023-05-22T13:54:11.224Z,9.18
2023-05-22T13:56:38.415Z,8.57
2023-05-22T13:59:07.134Z,8.80
2023-05-22T14:01:36.408Z,8.82
2023-05-22T14:04:03.874Z,9.15
2023-05-22T14:06:30.913Z,8.45
2023-05-22T14:08:57.923Z,9.23
2023-05-22T14:11:25.043Z,8.65
2023-05-22T14:13:54.260Z,8.00
2023-05-22T14:16:24.623Z,8.25
2023-05-22T14:18:51.974Z,7.88
2023-05-22T14:21:20.012Z,8.70
2023-05-22T14:23:47.168Z,8.70
2023-05-22T14:26:14.594Z,8.57
2023-05-22T14:28:42.261Z,8.80
2023-05-22T14:31:09.390Z,8.73
2023-05-22T14:33:36.818Z,9.25
2023-05-22T14:36:04.142Z,8.80
2023-05-22T14:38:33.836Z,8.05
2023-05-22T14:41:03.994Z,8.73
2023-05-22T14:43:31.158Z,8.60
2023-05-22T14:45:59.335Z,8.90
2023-05-22T14:48:26.871Z,8.63
2023-05-22T14:50:54.439Z,8.80
2023-05-22T14:53:22.366Z,9.20
2023-05-22T14:55:49.519Z,9.10
2023-05-22T14:58:16.615Z,10.30
2023-05-22T15:00:44.670Z,10.02
2023-05-22T15:03:13.044Z,10.32
2023-05-22T15:05:40.500Z,10.23
2023-05-22T15:08:07.857Z,11.05
2023-05-22T15:10:34.898Z,11.10
2023-05-22T15:13:01.971Z,10.38
2023-05-22T15:15:29.085Z,15.95
2023-05-22T15:17:56.486Z,10.55
2023-05-22T15:20:23.630Z,7.07
2023-05-22T15:22:50.679Z,6.10
2023-05-22T15:25:17.808Z,8.55
2023-05-22T15:27:44.938Z,5.60
2023-05-22T15:30:12.464Z,6.97
2023-05-22T15:32:39.990Z,5.22
2023-05-22T15:35:07.871Z,5.20
2023-05-22T15:37:36.643Z,4.82
2023-05-22T15:40:04.654Z,5.10
2023-05-22T15:42:34.505Z,5.72
2023-05-22T15:45:02.528Z,5.43
2023-05-22T15:47:32.815Z,6.78
2023-05-22T15:50:00.261Z,6.88
2023-05-22T15:52:27.368Z,6.22
2023-05-22T15:54:56.396Z,7.68
2023-05-22T15:57:26.665Z,9.05
2023-05-22T15:59:53.780Z,7.50
2023-05-22T16:02:21.022Z,6.10
2023-05-22T16:04:49.606Z,5.65
2023-05-22T16:07:18.915Z,5.20
2023-05-22T16:09:46.609Z,5.10
2023-05-22T16:12:13.938Z,5.60
2023-05-22T16:14:41.852Z,5.93
2023-05-22T16:17:09.226Z,4.68
2023-05-22T16:19:36.393Z,4.40
2023-05-22T16:22:03.766Z,5.03
2023-05-22T16:24:30.778Z,5.28
2023-05-22T16:27:00.043Z,4.15
2023-05-22T16:29:27.225Z,4.13
2023-05-22T16:31:54.481Z,3.42
2023-05-22T16:34:21.588Z,3.88
2023-05-22T16:36:48.832Z,3.80
2023-05-22T16:39:16.017Z,4.32
2023-05-22T16:41:43.023Z,4.38
2023-05-22T16:44:10.066Z,4.32
2023-05-22T16:46:37.159Z,4.72
2023-05-22T16:49:04.323Z,4.88
2023-05-22T16:51:31.324Z,5.35
2023-05-22T16:53:58.420Z,4.90
2023-05-22T16:56:26.122Z,7.13
2023-05-22T16:58:53.224Z,4.65
2023-05-22T17:01:21.944Z,4.70
2023-05-22T17:03:49.237Z,4.47
2023-05-22T17:06:17.860Z,5.95
2023-05-22T17:08:46.064Z,6.60
2023-05-22T17:11:13.144Z,5.47
2023-05-22T17:13:40.251Z,4.95
2023-05-22T17:16:07.405Z,5.75
2023-05-22T17:18:34.397Z,5.85
2023-05-22T17:21:01.563Z,5.88
2023-05-22T17:23:28.922Z,6.40
2023-05-22T17:25:56.551Z,5.78
2023-05-22T17:28:23.690Z,6.47
2023-05-22T17:30:50.875Z,6.80
2023-05-22T17:33:18.011Z,6.30
2023-05-22T17:35:45.282Z,6.47
2023-05-22T17:38:12.302Z,6.05
2023-05-22T17:40:45.640Z,6.40
2023-05-22T17:43:14.044Z,6.38
2023-05-22T17:45:41.791Z,6.43
2023-05-22T17:48:09.116Z,5.78
2023-05-22T17:50:36.250Z,6.22
2023-05-22T17:53:03.407Z,7.55
2023-05-22T17:55:30.604Z,6.80
2023-05-22T17:57:57.955Z,6.05
2023-05-22T18:00:24.988Z,6.13
2023-05-22T18:02:52.192Z,6.70
2023-05-22T18:05:19.258Z,6.95
2023-05-22T18:07:46.406Z,6.32
2023-05-22T18:10:13.440Z,6.82
2023-05-22T18:12:40.756Z,7.47
2023-05-22T18:15:10.740Z,7.30
2023-05-22T18:17:38.736Z,7.53
2023-05-22T18:20:08.231Z,7.40
2023-05-22T18:22:38.164Z,7.35
2023-05-22T18:25:06.913Z,7.80
2023-05-22T18:27:35.106Z,7.35
2023-05-22T18:30:03.189Z,7.95
2023-05-22T18:32:34.112Z,7.22
2023-05-22T18:35:03.714Z,10.70
2023-05-22T18:37:32.777Z,7.95
2023-05-22T18:40:00.079Z,7.22
2023-05-22T18:42:27.270Z,7.10
2023-05-22T18:44:54.339Z,7.47
2023-05-22T18:47:21.581Z,7.25
2023-05-22T18:49:48.697Z,7.45
2023-05-22T18:52:15.755Z,7.15
2023-05-22T18:54:42.872Z,7.95
2023-05-22T18:57:10.146Z,7.70
2023-05-22T18:59:37.583Z,8.35
2023-05-22T19:02:05.022Z,8.02
2023-05-22T19:04:32.057Z,8.65
2023-05-22T19:06:59.217Z,8.40
2023-05-22T19:09:26.372Z,8.90
2023-05-22T19:11:53.425Z,9.18
2023-05-22T19:14:20.783Z,8.70
2023-05-22T19:16:47.985Z,8.77
2023-05-22T19:19:15.192Z,8.98
2023-05-22T19:21:42.407Z,9.13
2023-05-22T19:24:09.578Z,8.75
2023-05-22T19:26:36.837Z,9.27
2023-05-22T19:29:04.042Z,9.55
2023-05-22T19:31:31.211Z,9.20
2023-05-22T19:33:58.273Z,10.07
2023-05-22T19:36:25.463Z,9.77
2023-05-22T19:38:53.663Z,9.52
2023-05-22T19:41:23.088Z,10.02
2023-05-22T19:43:51.533Z,9.43
2023-05-22T19:46:18.667Z,10.00
2023-05-22T19:48:45.986Z,10.07
2023-05-22T19:51:13.121Z,9.80
2023-05-22T19:53:41.758Z,9.55
2023-05-22T19:56:08.759Z,9.88
2023-05-22T19:58:35.888Z,9.25
2023-05-22T20:01:02.864Z,9.00
2023-05-22T20:03:30.103Z,9.93
2023-05-22T20:05:57.458Z,9.68
2023-05-22T20:08:25.670Z,9.20
2023-05-22T20:10:53.076Z,9.07
2023-05-22T20:13:20.237Z,9.63
2023-05-22T20:15:47.980Z,9.45
2023-05-22T20:18:15.405Z,9.52
2023-05-22T20:20:42.875Z,9.80
2023-05-22T20:23:10.193Z,9.27
2023-05-22T20:25:37.848Z,8.68
2023-05-22T20:28:05.419Z,9.02
2023-05-22T20:30:32.948Z,8.48
2023-05-22T20:33:00.245Z,8.85
2023-05-22T20:35:27.460Z,9.25
2023-05-22T20:37:54.646Z,8.65
2023-05-22T20:40:21.919Z,9.48
2023-05-22T20:42:49.274Z,9.63
2023-05-22T20:45:16.539Z,8.50
2023-05-22T20:47:44.114Z,9.00
2023-05-22T20:50:11.608Z,8.27
2023-05-22T20:52:38.719Z,10.07
2023-05-22T20:55:07.003Z,8.60
2023-05-22T20:57:34.647Z,9.32
2023-05-22T21:00:05.281Z,9.35
2023-05-22T21:02:39.116Z,8.43
2023-05-22T21:05:06.682Z,8.98
2023-05-22T21:07:34.322Z,8.75
2023-05-22T21:10:01.481Z,9.40
2023-05-22T21:12:33.797Z,9.20
2023-05-22T21:15:01.050Z,9.02
2023-05-22T21:17:28.132Z,9.00
2023-05-22T21:19:55.193Z,8.13
2023-05-22T21:22:22.225Z,8.63
2023-05-22T21:24:49.439Z,9.05
2023-05-22T21:27:16.567Z,8.77
2023-05-22T21:29:43.596Z,8.85
2023-05-22T21:32:10.691Z,8.60
2023-05-22T21:34:37.612Z,9.02
2023-05-22T21:37:04.849Z,8.05
2023-05-22T21:39:32.262Z,8.90
2023-05-22T21:41:59.314Z,8.20
2023-05-22T21:44:26.483Z,9.07
2023-05-22T21:46:53.642Z,8.45
2023-05-22T21:49:20.838Z,8.77
2023-05-22T21:51:47.998Z,8.57
2023-05-22T21:54:15.051Z,8.18
2023-05-22T21:56:42.097Z,8.40
2023-05-22T21:59:09.256Z,8.52
2023-05-22T22:01:36.436Z,8.20
2023-05-22T22:04:03.691Z,8.73
2023-05-22T22:06:30.832Z,8.15
2023-05-22T22:08:59.829Z,8.57
2023-05-22T22:11:27.603Z,8.07
2023-05-22T22:13:55.074Z,8.88
2023-05-22T22:16:22.402Z,8.05
2023-05-22T22:18:50.381Z,8.23
2023-05-22T22:21:17.715Z,8.20
2023-05-22T22:23:44.763Z,8.50
2023-05-22T22:26:14.738Z,8.45
2023-05-22T22:28:41.752Z,8.43
2023-05-22T22:31:08.850Z,8.63
2023-05-22T22:33:35.912Z,8.52
2023-05-22T22:36:03.168Z,8.05
2023-05-22T22:38:32.945Z,8.10
2023-05-22T22:41:00.877Z,8.80
2023-05-22T22:43:27.972Z,7.60
2023-05-22T22:45:56.057Z,8.10
2023-05-22T22:48:23.091Z,8.15
2023-05-22T22:50:50.280Z,9.00
2023-05-22T22:53:17.358Z,8.48
2023-05-22T22:55:47.086Z,8.77
2023-05-22T22:58:14.204Z,9.60
2023-05-22T23:00:41.485Z,9.63
2023-05-22T23:03:08.426Z,9.48
2023-05-22T23:05:35.852Z,9.68
2023-05-22T23:08:03.013Z,8.68
2023-05-22T23:10:30.269Z,9.13
2023-05-22T23:12:58.098Z,8.20
2023-05-22T23:15:25.389Z,9.27
2023-05-22T23:17:52.403Z,9.05
2023-05-22T23:20:19.469Z,8.38
2023-05-22T23:22:46.575Z,9.18
2023-05-22T23:25:13.698Z,8.85
2023-05-22T23:27:40.762Z,9.65
2023-05-22T23:30:08.338Z,9.60
2023-05-22T23:32:35.563Z,8.98
2023-05-22T23:35:02.658Z,9.85
2023-05-22T23:37:30.769Z,9.35
2023-05-22T23:39:57.993Z,8.93
2023-05-22T23:42:25.851Z,9.38
2023-05-22T23:44:52.950Z,9.23
2023-05-22T23:47:20.362Z,9.90
2023-05-22T23:49:47.703Z,9.00
2023-05-22T23:52:14.827Z,9.60
2023-05-22T23:54:41.790Z,9.90
2023-05-22T23:57:09.064Z,9.32
2023-05-22T23:59:36.178Z,9.73
